Time;durP1;ratioP1;P1;durP2;ratioP2;P2;SDS_P1;SDS_P2;PMS_P1;PMS_P2;Temp;Humidity;BMP_temperature;BMP_pressure;BME280_temperature;BME280_humidity;BME280_pressure;Samples;Min_cycle;Max_cycle;Signal;HPM_P1;HPM_P2
2022/01/11 00:01:01;;;;;;;32.42;12.10;;;;;;;0.89;100.00;101104.69;1627171;88;21074;-92
2022/01/11 00:03:27;;;;;;;26.07;11.08;;;;;;;0.90;100.00;101105.00;1627848;87;21145;-93
2022/01/11 00:08:29;;;;;;;35.45;12.55;;;;;;;0.84;100.00;101100.42;1627523;88;21598;-93
2022/01/11 00:13:18;;;;;;;28.65;11.83;;;;;;;0.80;100.00;101102.63;1627612;87;21010;-93
2022/01/11 00:15:46;;;;;;;29.50;11.65;;;;;;;0.80;100.00;101111.09;1627424;87;21726;-93
2022/01/11 00:18:13;;;;;;;28.85;11.25;;;;;;;0.82;100.00;101107.73;1627482;86;20975;-93
2022/01/11 00:20:39;;;;;;;32.75;12.63;;;;;;;0.83;100.00;101114.20;1632794;87;21605;-93
2022/01/11 00:25:42;;;;;;;31.33;11.57;;;;;;;0.79;100.00;101115.55;1590166;90;20996;-93
2022/01/11 00:28:09;;;;;;;32.63;11.83;;;;;;;0.80;100.00;101120.38;1605417;87;21101;-93
2022/01/11 00:30:41;;;;;;;32.13;12.00;;;;;;;0.77;100.00;101118.09;1625649;88;21090;-92
2022/01/11 00:33:09;;;;;;;34.80;12.15;;;;;;;0.77;100.00;101120.23;1622039;88;22285;-93
2022/01/11 00:35:43;;;;;;;30.55;11.88;;;;;;;0.80;100.00;101120.38;1625330;86;21158;-90
2022/01/11 00:38:08;;;;;;;32.35;11.97;;;;;;;0.80;100.00;101126.50;1555416;91;21077;-93
2022/01/11 00:40:35;;;;;;;38.33;13.25;;;;;;;0.79;100.00;101123.51;1574863;91;21114;-91
2022/01/11 00:43:02;;;;;;;33.35;12.10;;;;;;;0.79;100.00;101121.36;1575629;90;21053;-91
2022/01/11 00:45:28;;;;;;;33.55;12.20;;;;;;;0.78;100.00;101123.70;1575322;91;21384;-93
2022/01/11 00:47:55;;;;;;;31.37;12.15;;;;;;;0.80;100.00;101123.85;1575206;91;21576;-92
2022/01/11 00:50:21;;;;;;;29.30;11.45;;;;;;;0.83;100.00;101130.11;1575241;91;21058;-90
2022/01/11 00:52:47;;;;;;;32.45;12.15;;;;;;;0.82;100.00;101129.78;1575021;90;20972;-91
2022/01/11 00:55:15;;;;;;;30.27;11.73;;;;;;;0.82;100.00;101131.10;1574892;91;21629;-91
2022/01/11 00:57:41;;;;;;;34.83;12.28;;;;;;;0.82;100.00;101128.95;1574829;91;21163;-91
2022/01/11 01:00:11;;;;;;;31.65;12.05;;;;;;;0.82;100.00;101132.43;1574849;91;21664;-91
2022/01/11 01:02:43;;;;;;;33.73;12.68;;;;;;;0.83;100.00;101135.93;1596921;88;21567;-94
2022/01/11 01:05:09;;;;;;;32.98;12.28;;;;;;;0.84;100.00;101137.56;1625683;88;21451;-91
2022/01/11 01:07:35;;;;;;;33.48;12.13;;;;;;;0.82;100.00;101139.57;1625795;88;21583;-92
2022/01/11 01:10:12;;;;;;;35.73;13.65;;;;;;;0.84;100.00;101137.56;1625719;88;21155;-90
2022/01/11 01:12:33;;;;;;;35.10;13.28;;;;;;;0.83;100.00;101148.69;1622074;88;21096;-90
2022/01/11 01:15:01;;;;;;;33.60;13.53;;;;;;;0.81;100.00;101144.05;1626169;88;21094;-90
2022/01/11 01:17:27;;;;;;;29.48;11.97;;;;;;;0.78;100.00;101145.75;1625793;88;21095;-91
2022/01/11 01:19:53;;;;;;;30.05;11.90;;;;;;;0.76;100.00;101142.44;1622501;88;21116;-92
2022/01/11 01:22:22;;;;;;;32.17;11.63;;;;;;;0.74;100.00;101145.80;1650862;85;21171;-92
2022/01/11 01:24:51;;;;;;;29.07;12.25;;;;;;;0.75;100.00;101144.78;1683298;85;21191;-91
2022/01/11 01:27:16;;;;;;;31.95;12.30;;;;;;;0.75;100.00;101140.80;1682730;83;21093;-91
2022/01/11 01:29:45;;;;;;;33.02;12.50;;;;;;;0.78;100.00;101150.23;1654745;85;20950;-91
2022/01/11 01:32:11;;;;;;;31.52;12.23;;;;;;;0.76;100.00;101145.61;1617308;88;21114;-91
2022/01/11 01:34:37;;;;;;;27.52;11.65;;;;;;;0.76;100.00;101146.93;1617388;88;21184;-91
2022/01/11 01:37:07;;;;;;;29.40;11.12;;;;;;;0.75;100.00;101146.63;1617250;88;21615;-91
2022/01/11 01:39:32;;;;;;;27.85;11.60;;;;;;;0.80;100.00;101149.56;1616510;87;21236;-91
2022/01/11 01:41:58;;;;;;;32.60;11.50;;;;;;;0.81;100.00;101153.34;1617354;88;21057;-91
2022/01/11 01:44:32;;;;;;;32.05;12.00;;;;;;;0.81;100.00;101147.22;1617396;88;20940;-93
2022/01/11 01:46:56;;;;;;;34.18;10.75;;;;;;;0.79;100.00;101147.38;1554205;90;21572;-92
2022/01/11 01:49:23;;;;;;;35.45;12.33;;;;;;;0.79;100.00;101148.70;1554768;90;21117;-90
2022/01/11 01:51:50;;;;;;;30.57;11.78;;;;;;;0.77;100.00;101151.25;1535154;91;21135;-92
2022/01/11 01:54:16;;;;;;;31.15;12.35;;;;;;;0.73;100.00;101157.39;1554647;90;21072;-91
2022/01/11 01:56:44;;;;;;;30.85;12.47;;;;;;;0.73;100.00;101145.45;1554968;90;21155;-91
2022/01/11 01:59:14;;;;;;;27.17;11.75;;;;;;;0.72;100.00;101143.82;1554727;90;21154;-91
2022/01/11 02:01:46;;;;;;;32.83;11.78;;;;;;;0.72;100.00;101153.11;1554823;90;21051;-92
2022/01/11 02:04:08;;;;;;;31.57;12.10;;;;;;;0.71;100.00;101152.80;1551592;90;21316;-91
2022/01/11 02:06:33;;;;;;;33.90;12.88;;;;;;;0.72;100.00;101143.82;1554664;90;21039;-90
2022/01/11 02:09:01;;;;;;;33.00;12.03;;;;;;;0.71;100.00;101154.59;1554846;90;20949;-93
2022/01/11 02:11:27;;;;;;;31.35;11.95;;;;;;;0.72;100.00;101149.13;1554530;90;21620;-94
2022/01/11 02:13:53;;;;;;;32.45;12.63;;;;;;;0.71;100.00;101152.80;1554832;90;21005;-93
2022/01/11 02:16:22;;;;;;;31.35;12.47;;;;;;;0.72;100.00;101152.29;1555235;91;21033;-90
2022/01/11 02:18:49;;;;;;;33.78;12.47;;;;;;;0.72;100.00;101158.41;1554641;90;21111;-94
2022/01/11 02:21:16;;;;;;;35.55;12.40;;;;;;;0.70;100.00;101159.09;1550503;92;21133;-93
2022/01/11 02:23:42;;;;;;;38.45;13.58;;;;;;;0.69;100.00;101154.80;1554421;90;21205;-93
2022/01/11 02:26:08;;;;;;;31.20;12.00;;;;;;;0.67;100.00;101164.75;1554656;91;21607;-92
2022/01/11 02:28:35;;;;;;;32.17;12.75;;;;;;;0.63;100.00;101159.50;1556323;91;21103;-92
2022/01/11 02:31:12;;;;;;;33.40;12.75;;;;;;;0.62;100.00;101161.84;1571500;89;21585;-94
2022/01/11 02:33:40;;;;;;;34.05;13.60;;;;;;;0.61;100.00;101164.15;1568835;89;21128;-93
2022/01/11 02:36:10;;;;;;;37.98;13.68;;;;;;;0.57;100.00;101154.92;1572031;91;21935;-93
2022/01/11 02:38:42;;;;;;;35.68;12.68;;;;;;;0.58;100.00;101163.19;1558684;91;21006;-93
2022/01/11 02:41:08;;;;;;;38.92;11.93;;;;;;;0.58;100.00;101164.52;1558766;92;21434;-94
2022/01/11 02:43:34;;;;;;;41.20;14.95;;;;;;;0.59;100.00;101154.22;1577837;89;20967;-94
2022/01/11 02:46:01;;;;;;;34.95;13.15;;;;;;;0.60;100.00;101163.33;1608404;87;21002;-94
2022/01/11 02:48:28;;;;;;;38.38;12.95;;;;;;;0.56;100.00;101159.41;1608103;87;21156;-93
2022/01/11 02:50:54;;;;;;;34.48;12.68;;;;;;;0.55;100.00;101160.89;1608376;89;21186;-93
2022/01/11 02:53:20;;;;;;;41.25;13.20;;;;;;;0.51;100.00;101156.97;1608684;87;21010;-93
2022/01/11 02:55:46;;;;;;;35.63;13.15;;;;;;;0.47;100.00;101156.98;1608399;89;20975;-91
2022/01/11 02:58:16;;;;;;;37.58;12.80;;;;;;;0.46;100.00;101157.48;1608279;89;21002;-93
2022/01/11 03:00:42;;;;;;;39.03;12.93;;;;;;;0.47;100.00;101158.31;1608412;89;21947;-91
2022/01/11 03:03:20;;;;;;;36.85;13.40;;;;;;;0.47;100.00;101168.91;1608347;89;21144;-94
2022/01/11 03:05:57;;;;;;;35.50;12.90;;;;;;;0.44;100.00;101160.81;1606939;87;21502;-93
2022/01/11 03:08:25;;;;;;;39.05;13.25;;;;;;;0.40;100.00;101157.70;1510844;94;21141;-94
2022/01/11 03:10:52;;;;;;;32.83;12.35;;;;;;;0.41;100.00;101157.20;1492584;94;21147;-93
2022/01/11 03:13:20;;;;;;;32.58;12.45;;;;;;;0.41;100.00;101163.34;1511340;94;21114;-92
2022/01/11 03:15:48;;;;;;;31.57;11.53;;;;;;;0.43;100.00;101163.97;1511609;94;21246;-92
2022/01/11 03:18:16;;;;;;;35.03;13.10;;;;;;;0.42;100.00;101168.96;1511364;94;21055;-91
2022/01/11 03:20:45;;;;;;;33.30;12.85;;;;;;;0.42;100.00;101162.84;1511508;94;21194;-92
2022/01/11 03:25:42;;;;;;;32.88;12.23;;;;;;;0.38;100.00;101162.37;1470480;97;21145;-93
2022/01/11 03:28:11;;;;;;;33.53;11.15;;;;;;;0.39;100.00;101164.52;1476204;93;21248;-92
2022/01/11 03:33:08;;;;;;;30.97;10.80;;;;;;;0.32;100.00;101165.72;1457185;97;21120;-94
2022/01/11 03:35:39;;;;;;;31.33;10.00;;;;;;;0.33;100.00;101174.52;1478928;94;21023;-92
2022/01/11 03:38:11;;;;;;;26.93;10.15;;;;;;;0.32;100.00;101167.04;1497549;94;21125;-92
2022/01/11 03:40:39;;;;;;;25.82;10.20;;;;;;;0.30;100.00;101162.95;1494493;94;21093;-94
2022/01/11 03:43:06;;;;;;;28.50;10.82;;;;;;;0.31;100.00;101168.56;1497935;94;21102;-92
2022/01/11 03:45:33;;;;;;;24.60;10.30;;;;;;;0.29;100.00;101171.88;1498122;94;21070;-94
2022/01/11 03:48:02;;;;;;;24.70;9.85;;;;;;;0.28;100.00;101168.92;1498197;94;21113;-93
2022/01/11 03:50:30;;;;;;;26.55;9.90;;;;;;;0.29;100.00;101172.70;1497945;94;21139;-93
2022/01/11 03:58:15;;;;;;;27.77;9.38;;;;;;;0.22;100.00;101171.27;1465919;96;21786;-93
2022/01/11 04:00:43;;;;;;;24.50;8.83;;;;;;;0.22;100.00;101176.57;1502315;94;21117;-93
2022/01/11 04:03:09;;;;;;;23.38;9.30;;;;;;;0.22;100.00;101177.08;1502360;94;21131;-92
2022/01/11 04:05:36;;;;;;;27.15;9.18;;;;;;;0.22;100.00;101183.20;1481108;95;21687;-95
2022/01/11 04:08:03;;;;;;;24.00;8.88;;;;;;;0.21;100.00;101181.56;1498024;94;21101;-94
2022/01/11 04:10:29;;;;;;;24.20;8.93;;;;;;;0.17;100.00;101178.92;1497555;94;21082;-94
2022/01/11 04:12:55;;;;;;;27.75;9.40;;;;;;;0.16;100.00;101180.44;1497860;94;21190;-91
2022/01/11 04:15:23;;;;;;;22.13;8.25;;;;;;;0.13;100.00;101182.11;1497848;94;21931;-92
2022/01/11 04:17:49;;;;;;;24.55;8.33;;;;;;;0.11;100.00;101182.78;1470255;96;21131;-92
2022/01/11 04:20:15;;;;;;;28.25;10.32;;;;;;;0.09;100.00;101190.08;1470464;96;21094;-91
2022/01/11 04:22:41;;;;;;;22.58;9.08;;;;;;;0.07;100.00;101190.27;1508611;91;21776;-92
2022/01/11 04:25:08;;;;;;;27.73;9.20;;;;;;;0.06;100.00;101198.38;1546890;91;21047;-92
2022/01/11 04:27:34;;;;;;;25.82;9.65;;;;;;;0.04;100.00;101194.59;1546834;91;22180;-93
2022/01/11 04:30:00;;;;;;;27.90;10.18;;;;;;;0.03;100.00;101196.08;1578958;89;21103;-90
2022/01/11 04:32:28;;;;;;;25.20;10.50;;;;;;;0.01;100.00;101195.45;1615186;86;20912;-92
2022/01/11 04:34:53;;;;;;;28.95;9.43;;;;;;;0.00;100.00;101202.58;1653164;85;21087;-94
2022/01/11 04:37:20;;;;;;;24.27;9.48;;;;;;;-0.02;100.00;101201.42;1653388;86;20939;-92
2022/01/11 04:39:46;;;;;;;24.67;9.55;;;;;;;-0.02;100.00;101205.39;1653160;86;21178;-92
2022/01/11 04:42:12;;;;;;;23.02;9.68;;;;;;;-0.02;100.00;101208.04;1653368;86;22386;-91
2022/01/11 04:44:38;;;;;;;21.82;9.00;;;;;;;-0.03;100.00;101202.42;1653322;86;21015;-91
2022/01/11 04:47:04;;;;;;;23.00;8.78;;;;;;;-0.03;100.00;101203.75;1653230;86;20982;-90
2022/01/11 04:49:30;;;;;;;22.75;8.70;;;;;;;-0.06;100.00;101201.45;1653219;86;21113;-90
2022/01/11 04:51:56;;;;;;;22.70;8.60;;;;;;;-0.09;100.00;101207.10;1653290;86;21961;-89
2022/01/11 04:54:22;;;;;;;25.57;9.20;;;;;;;-0.11;100.00;101214.89;1652882;86;21137;-92
2022/01/11 04:56:48;;;;;;;28.38;9.80;;;;;;;-0.14;100.00;101217.39;1653208;86;20979;-92
2022/01/11 04:59:14;;;;;;;23.67;8.60;;;;;;;-0.14;100.00;101221.36;1653262;86;21029;-91
2022/01/11 05:01:40;;;;;;;25.95;9.33;;;;;;;-0.15;100.00;101212.25;1653154;86;20964;-90
2022/01/11 05:04:07;;;;;;;26.17;8.85;;;;;;;-0.15;100.00;101211.74;1652935;85;21122;-90
2022/01/11 05:06:35;;;;;;;28.83;10.40;;;;;;;-0.15;100.00;101210.92;1653149;86;21153;-93
2022/01/11 05:09:01;;;;;;;24.77;8.88;;;;;;;-0.15;100.00;101215.72;1616348;87;21133;-90
2022/01/11 05:11:27;;;;;;;25.72;9.15;;;;;;;-0.18;100.00;101217.89;1616342;87;21066;-92
2022/01/11 05:13:53;;;;;;;23.87;9.30;;;;;;;-0.22;100.00;101214.77;1616367;87;21064;-90
2022/01/11 05:16:18;;;;;;;23.40;8.90;;;;;;;-0.24;100.00;101215.44;1615683;87;21172;-91
2022/01/11 05:18:44;;;;;;;25.35;9.55;;;;;;;-0.24;100.00;101222.91;1615723;87;21777;-90
2022/01/11 05:21:10;;;;;;;28.77;9.75;;;;;;;-0.27;100.00;101227.70;1615606;87;21004;-91
2022/01/11 05:23:39;;;;;;;26.33;9.63;;;;;;;-0.28;100.00;101232.17;1615898;87;20936;-91
2022/01/11 05:26:06;;;;;;;22.93;8.78;;;;;;;-0.28;100.00;101238.80;1615685;87;21237;-90
2022/01/11 05:28:34;;;;;;;29.23;9.38;;;;;;;-0.29;100.00;101233.69;1617463;86;21260;-90
2022/01/11 05:31:00;;;;;;;26.93;10.30;;;;;;;-0.30;100.00;101243.94;1635904;86;21118;-91
2022/01/11 05:35:53;;;;;;;26.27;9.45;;;;;;;-0.32;100.00;101244.63;1557613;90;21129;-91
2022/01/11 05:38:19;;;;;;;26.82;9.78;;;;;;;-0.28;100.00;101247.25;1558077;90;21138;-90
2022/01/11 05:40:45;;;;;;;20.95;7.92;;;;;;;-0.31;100.00;101251.06;1557945;90;21652;-91
2022/01/11 05:43:12;;;;;;;23.10;8.35;;;;;;;-0.34;100.00;101258.53;1557853;90;21021;-90
2022/01/11 05:45:38;;;;;;;25.77;9.43;;;;;;;-0.35;100.00;101253.73;1557407;90;21110;-92
2022/01/11 05:48:05;;;;;;;26.85;9.55;;;;;;;-0.38;100.00;101262.03;1538218;92;21102;-93
2022/01/11 05:50:34;;;;;;;27.58;10.25;;;;;;;-0.41;100.00;101262.37;1558116;90;21100;-92
2022/01/11 05:52:59;;;;;;;31.35;10.50;;;;;;;-0.39;100.00;101268.80;1557863;90;21070;-93
2022/01/11 05:55:25;;;;;;;30.02;9.25;;;;;;;-0.38;100.00;101271.29;1557933;90;21051;-88
2022/01/11 05:57:52;;;;;;;29.92;9.85;;;;;;;-0.39;100.00;101275.42;1538483;90;21154;-91
2022/01/11 06:00:20;;;;;;;27.98;9.83;;;;;;;-0.41;100.00;101280.91;1559872;90;21183;-93
2022/01/11 06:02:52;;;;;;;25.82;8.53;;;;;;;-0.43;100.00;101280.23;1553077;90;21271;-91
2022/01/11 06:05:17;;;;;;;31.57;10.58;;;;;;;-0.43;100.00;101282.06;1558039;90;21115;-93
2022/01/11 06:07:43;;;;;;;28.40;8.60;;;;;;;-0.46;100.00;101276.61;1570666;89;21177;-91
2022/01/11 06:10:11;;;;;;;29.15;9.38;;;;;;;-0.51;100.00;101281.58;1571695;89;21145;-93
2022/01/11 06:12:38;;;;;;;24.75;8.23;;;;;;;-0.54;100.00;101289.36;1571267;89;21155;-92
2022/01/11 06:15:06;;;;;;;22.90;8.20;;;;;;;-0.53;100.00;101294.15;1568463;90;21556;-94
2022/01/11 06:20:05;;;;;;;22.27;7.90;;;;;;;-0.56;100.00;101295.81;1515456;93;21580;-94
2022/01/11 06:22:31;;;;;;;21.25;7.97;;;;;;;-0.53;100.00;101302.94;1519698;92;21090;-92
2022/01/11 06:24:57;;;;;;;25.00;8.58;;;;;;;-0.51;100.00;101299.61;1526755;92;21174;-91
2022/01/11 06:27:23;;;;;;;22.50;7.92;;;;;;;-0.51;100.00;101300.11;1515046;93;21111;-91
2022/01/11 06:29:49;;;;;;;19.67;7.42;;;;;;;-0.55;100.00;101300.95;1535768;90;21353;-92
2022/01/11 06:32:15;;;;;;;20.02;7.72;;;;;;;-0.56;100.00;101305.08;1551188;90;21032;-92
2022/01/11 06:34:42;;;;;;;26.10;8.90;;;;;;;-0.56;100.00;101303.75;1584593;88;21670;-92
2022/01/11 06:37:08;;;;;;;25.82;8.55;;;;;;;-0.55;100.00;101311.55;1628841;88;21536;-93
2022/01/11 06:39:36;;;;;;;24.47;8.95;;;;;;;-0.55;100.00;101316.84;1629035;88;21021;-93
2022/01/11 06:42:03;;;;;;;25.65;8.75;;;;;;;-0.56;100.00;101315.66;1629322;88;21115;-94
2022/01/11 06:44:32;;;;;;;27.15;8.95;;;;;;;-0.56;100.00;101319.16;1593307;88;21047;-94
2022/01/11 06:47:00;;;;;;;29.70;10.40;;;;;;;-0.71;100.00;101293.03;1621996;88;21128;-94
2022/01/11 06:49:26;;;;;;;25.85;9.45;;;;;;;-0.58;100.00;101323.79;1549950;91;21094;-91
2022/01/11 06:51:52;;;;;;;28.35;10.45;;;;;;;-0.61;100.00;101321.98;1601292;87;21033;-93
2022/01/11 06:54:22;;;;;;;29.90;9.78;;;;;;;-0.60;100.00;101324.45;1590339;87;21073;-93
2022/01/11 06:56:48;;;;;;;25.43;10.58;;;;;;;-0.63;100.00;101330.08;1611191;87;21107;-93
2022/01/11 06:59:14;;;;;;;27.27;9.70;;;;;;;-0.64;100.00;101328.94;1623479;87;21606;-89
2022/01/11 07:01:40;;;;;;;32.73;10.48;;;;;;;-0.67;100.00;101330.59;1636682;87;20913;-91
2022/01/11 07:04:09;;;;;;;21.90;9.18;;;;;;;-0.73;100.00;101329.45;1636444;87;20894;-89
2022/01/11 07:06:35;;;;;;;27.62;9.53;;;;;;;-0.75;100.00;101338.86;1602895;89;21989;-90
2022/01/11 07:09:02;;;;;;;23.75;8.93;;;;;;;-0.74;100.00;101344.47;1603386;89;20988;-90
2022/01/11 07:13:56;;;;;;;22.93;9.53;;;;;;;-0.84;100.00;101343.83;1539133;92;21105;-91
2022/01/11 07:16:22;;;;;;;26.17;9.55;;;;;;;-0.87;100.00;101340.70;1542578;92;21696;-90
2022/01/11 07:18:49;;;;;;;26.77;10.13;;;;;;;-0.89;100.00;101343.50;1543305;92;21103;-91
2022/01/11 07:21:15;;;;;;;30.40;11.43;;;;;;;-0.90;100.00;101341.86;1542056;92;21062;-91
2022/01/11 07:23:44;;;;;;;28.30;9.48;;;;;;;-0.93;100.00;101337.72;1542429;92;21156;-89
2022/01/11 07:26:10;;;;;;;20.55;7.67;;;;;;;-0.94;100.00;101342.69;1542352;92;21129;-91
2022/01/11 07:28:36;;;;;;;22.22;9.18;;;;;;;-0.94;100.00;101346.66;1542487;92;21050;-92
2022/01/11 07:31:03;;;;;;;25.80;9.83;;;;;;;-0.91;100.00;101346.83;1538274;92;21779;-87
2022/01/11 07:33:31;;;;;;;25.27;9.30;;;;;;;-0.93;100.00;101344.33;1550682;92;21096;-88
2022/01/11 07:35:59;;;;;;;26.62;11.30;;;;;;;-0.92;100.00;101348.62;1530476;92;21130;-89
2022/01/11 07:38:25;;;;;;;23.55;9.45;;;;;;;-0.92;100.00;101344.65;1550316;92;21123;-89
2022/01/11 07:40:51;;;;;;;20.68;8.73;;;;;;;-0.90;100.00;101349.79;1550550;92;21763;-90
2022/01/11 07:43:17;;;;;;;19.62;9.10;;;;;;;-0.84;100.00;101350.95;1550536;92;21110;-90
2022/01/11 07:45:43;;;;;;;23.22;8.30;;;;;;;-0.80;100.00;101356.23;1559161;89;21040;-89
2022/01/11 07:48:09;;;;;;;18.50;7.87;;;;;;;-0.76;100.00;101354.42;1588795;89;21133;-90
2022/01/11 07:50:35;;;;;;;21.17;8.55;;;;;;;-0.75;100.00;101351.27;1567962;90;21726;-89
2022/01/11 07:53:01;;;;;;;18.50;7.67;;;;;;;-0.70;100.00;101348.95;1588742;88;21045;-89
2022/01/11 07:55:27;;;;;;;17.82;7.45;;;;;;;-0.67;100.00;101352.59;1588993;89;21307;-89
2022/01/11 07:57:53;;;;;;;18.92;7.78;;;;;;;-0.64;100.00;101355.41;1588609;89;20918;-90
2022/01/11 08:00:19;;;;;;;18.95;7.67;;;;;;;-0.65;100.00;101353.23;1588592;89;21128;-89
2022/01/11 08:02:45;;;;;;;18.85;7.50;;;;;;;-0.64;100.00;101358.87;1567760;89;20859;-89
2022/01/11 08:05:16;;;;;;;17.90;7.60;;;;;;;-0.65;100.00;101354.55;1567773;89;21064;-90
2022/01/11 08:07:42;;;;;;;18.25;7.65;;;;;;;-0.65;100.00;101361.67;1542801;93;21068;-89
2022/01/11 08:10:18;;;;;;;18.57;6.97;;;;;;;-0.65;100.00;101361.17;1555342;88;21641;-89
2022/01/11 08:12:42;;;;;;;17.57;6.65;;;;;;;-0.64;100.00;101360.20;1605173;88;21055;-90
2022/01/11 08:15:08;;;;;;;15.53;6.90;;;;;;;-0.63;100.00;101359.19;1605622;89;20929;-89
2022/01/11 08:17:34;;;;;;;16.17;7.15;;;;;;;-0.61;100.00;101355.07;1605526;89;21108;-89
2022/01/11 08:20:00;;;;;;;19.52;7.60;;;;;;;-0.58;100.00;101354.23;1605715;89;21631;-90
2022/01/11 08:22:26;;;;;;;16.80;7.60;;;;;;;-0.56;100.00;101351.40;1605845;89;21052;-89
2022/01/11 08:24:55;;;;;;;23.73;8.93;;;;;;;-0.60;100.00;101356.71;1605680;88;21016;-90
2022/01/11 08:27:22;;;;;;;23.27;8.85;;;;;;;-0.63;100.00;101343.81;1605465;89;21036;-90
2022/01/11 08:29:50;;;;;;;20.90;8.70;;;;;;;-0.62;100.00;101354.22;1617139;86;21503;-89
2022/01/11 08:32:17;;;;;;;24.02;9.63;;;;;;;-0.61;100.00;101352.42;1623464;87;23701;-89
2022/01/11 08:34:43;;;;;;;21.25;8.40;;;;;;;-0.66;100.00;101346.30;1645323;87;21105;-88
2022/01/11 08:37:09;;;;;;;20.55;8.53;;;;;;;-0.69;100.00;101352.74;1645287;87;21070;-87
2022/01/11 08:39:36;;;;;;;17.48;8.43;;;;;;;-0.69;100.00;101352.74;1645563;87;21063;-87
2022/01/11 08:42:03;;;;;;;22.07;8.43;;;;;;;-0.68;100.00;101356.21;1645323;87;21117;-87
2022/01/11 08:44:29;;;;;;;18.57;7.55;;;;;;;-0.71;100.00;101352.58;1645309;87;21168;-87
2022/01/11 08:46:55;;;;;;;21.23;7.05;;;;;;;-0.77;100.00;101355.39;1645286;87;21114;-87
2022/01/11 08:49:22;;;;;;;18.42;7.45;;;;;;;-0.77;100.00;101351.42;1645158;87;21542;-87
2022/01/11 08:51:48;;;;;;;16.12;6.90;;;;;;;-0.73;100.00;101353.27;1645474;87;21035;-88
2022/01/11 08:54:15;;;;;;;18.52;7.60;;;;;;;-0.73;100.00;101343.50;1645542;87;21074;-88
2022/01/11 08:56:41;;;;;;;23.65;8.00;;;;;;;-0.73;100.00;101344.82;1623336;87;21816;-87
2022/01/11 08:59:08;;;;;;;21.35;7.05;;;;;;;-0.72;100.00;101340.35;1645367;87;21066;-88
2022/01/11 09:01:34;;;;;;;15.63;6.55;;;;;;;-0.69;100.00;101340.02;1645494;87;21401;-87
2022/01/11 09:04:01;;;;;;;12.98;6.10;;;;;;;-0.65;100.00;101331.23;1667574;83;21019;-88
2022/01/11 09:06:27;;;;;;;14.83;6.03;;;;;;;-0.58;100.00;101317.17;1727479;83;21023;-88
2022/01/11 09:08:53;;;;;;;12.70;5.50;;;;;;;-0.48;100.00;101324.92;1728116;82;21160;-87
2022/01/11 09:11:20;;;;;;;17.50;6.60;;;;;;;-0.46;100.00;101315.81;1728234;83;21106;-87
2022/01/11 09:13:47;;;;;;;13.15;5.47;;;;;;;-0.39;100.00;101312.48;1727374;82;21560;-88
2022/01/11 09:16:15;;;;;;;16.17;6.47;;;;;;;-0.37;100.00;101323.24;1727242;83;21048;-88
2022/01/11 09:18:41;;;;;;;14.50;5.42;;;;;;;-0.28;100.00;101315.59;1727125;83;21083;-88
2022/01/11 09:21:08;;;;;;;12.75;5.78;;;;;;;-0.22;100.00;101311.44;1727162;83;21067;-88
2022/01/11 09:23:35;;;;;;;13.20;5.78;;;;;;;-0.22;100.00;101319.39;1727218;83;21062;-88
2022/01/11 09:26:02;;;;;;;16.35;6.00;;;;;;;-0.19;100.00;101313.75;1727232;83;21695;-87
2022/01/11 09:28:27;;;;;;;12.23;5.35;;;;;;;-0.14;100.00;101312.74;1727314;83;21577;-87
2022/01/11 09:30:53;;;;;;;14.73;5.42;;;;;;;-0.11;100.00;101310.25;1727139;82;20992;-87
2022/01/11 09:33:19;;;;;;;13.45;5.85;;;;;;;-0.14;100.00;101303.47;1727479;83;22000;-87
2022/01/11 09:35:46;;;;;;;17.32;6.95;;;;;;;-0.09;100.00;101307.77;1727214;83;20961;-87
2022/01/11 09:38:12;;;;;;;14.38;6.17;;;;;;;-0.09;100.00;101301.14;1727369;82;21035;-87
2022/01/11 09:40:38;;;;;;;19.10;7.67;;;;;;;-0.11;100.00;101304.95;1727574;83;21584;-87
2022/01/11 09:43:04;;;;;;;22.60;7.45;;;;;;;-0.13;100.00;101305.11;1727389;81;21070;-87
2022/01/11 09:45:30;;;;;;;19.07;6.60;;;;;;;-0.15;100.00;101304.95;1727725;83;21106;-87
2022/01/11 09:47:56;;;;;;;15.83;6.83;;;;;;;-0.19;100.00;101310.28;1727296;83;21559;-88
2022/01/11 09:52:52;;;;;;;17.32;7.05;;;;;;;-0.27;100.00;101307.15;1661130;85;21112;-87
2022/01/11 09:55:18;;;;;;;20.88;7.30;;;;;;;-0.30;100.00;101304.84;1661823;85;21022;-87
2022/01/11 09:57:44;;;;;;;22.25;8.58;;;;;;;-0.29;100.00;101307.34;1661510;85;21093;-88
2022/01/11 10:00:14;;;;;;;25.23;9.13;;;;;;;-0.30;100.00;101308.81;1660919;84;20962;-88
2022/01/11 10:05:28;;;;;;;25.40;8.60;;;;;;;-0.39;100.00;101309.84;1597703;89;21094;-88
2022/01/11 10:07:54;;;;;;;22.60;7.87;;;;;;;-0.38;100.00;101307.04;1527322;93;21062;-87
2022/01/11 10:10:25;;;;;;;21.82;7.55;;;;;;;-0.43;100.00;101308.54;1527762;93;21935;-88
2022/01/11 10:12:58;;;;;;;26.77;8.78;;;;;;;-0.47;100.00;101307.56;1510977;94;21103;-88
2022/01/11 10:15:30;;;;;;;27.65;8.28;;;;;;;-0.49;100.00;101307.39;1511294;94;21112;-87
2022/01/11 10:17:56;;;;;;;27.37;9.10;;;;;;;-0.49;100.00;101307.39;1532835;93;21061;-87
2022/01/11 10:20:25;;;;;;;23.77;8.93;;;;;;;-0.44;100.00;101314.34;1532826;93;21041;-88
2022/01/11 10:22:56;;;;;;;28.17;8.95;;;;;;;-0.40;100.00;101305.55;1532459;93;22047;-88
2022/01/11 10:25:24;;;;;;;28.07;9.80;;;;;;;-0.47;100.00;101307.56;1532856;92;21128;-88
2022/01/11 10:28:05;;;;;;;27.75;8.70;;;;;;;-0.48;100.00;101308.53;1533053;92;21100;-88
2022/01/11 10:30:34;;;;;;;27.65;9.75;;;;;;;-0.46;100.00;101308.37;1530734;90;21138;-88
2022/01/11 10:33:06;;;;;;;27.77;10.30;;;;;;;-0.52;100.00;101307.23;1524146;94;21077;-86
2022/01/11 10:35:42;;;;;;;35.20;11.65;;;;;;;-0.48;100.00;101305.06;1526633;94;21249;-88
2022/01/11 10:38:08;;;;;;;31.60;9.78;;;;;;;-0.50;100.00;101305.72;1526323;94;21141;-87
2022/01/11 10:40:42;;;;;;;28.50;9.38;;;;;;;-0.49;100.00;101303.42;1526759;94;21140;-87
2022/01/11 10:43:15;;;;;;;34.38;10.40;;;;;;;-0.49;100.00;101308.22;1481676;96;20959;-87
2022/01/11 10:45:50;;;;;;;34.75;11.33;;;;;;;-0.48;100.00;101311.18;1439810;98;21703;-88
2022/01/11 10:48:27;;;;;;;37.45;12.25;;;;;;;-0.44;100.00;101309.52;1352229;106;21418;-87
2022/01/11 10:50:59;;;;;;;36.00;12.58;;;;;;;-0.44;100.00;101303.75;1352101;106;21684;-87
2022/01/11 10:53:32;;;;;;;39.53;12.90;;;;;;;-0.50;100.00;101310.55;1352612;106;21253;-88
2022/01/11 10:56:01;;;;;;;39.58;13.00;;;;;;;-0.47;100.00;101318.14;1345589;106;21399;-87
2022/01/11 10:58:32;;;;;;;43.20;13.00;;;;;;;-0.49;100.00;101306.89;1281420;112;21776;-87
2022/01/11 11:00:59;;;;;;;49.67;14.70;;;;;;;-0.51;100.00;101314.16;1291229;109;21206;-87
2022/01/11 11:03:34;;;;;;;45.15;13.00;;;;;;;-0.57;100.00;101310.88;1268263;110;21312;-87
2022/01/11 11:06:10;;;;;;;46.18;14.10;;;;;;;-0.55;100.00;101310.22;1309091;109;21268;-90
2022/01/11 11:08:47;;;;;;;49.90;14.58;;;;;;;-0.56;100.00;101315.66;1309193;108;21278;-89
2022/01/11 11:11:20;;;;;;;47.55;14.93;;;;;;;-0.58;100.00;101315.85;1329313;105;21129;-88
2022/01/11 11:13:54;;;;;;;38.80;14.00;;;;;;;-0.53;100.00;101316.17;1318422;107;21723;-90
2022/01/11 11:16:28;;;;;;;41.13;12.40;;;;;;;-0.55;100.00;101318.16;1328594;106;21144;-89
2022/01/11 11:19:04;;;;;;;45.80;13.83;;;;;;;-0.58;100.00;101319.82;1343743;105;21132;-89
2022/01/11 11:21:38;;;;;;;44.30;13.53;;;;;;;-0.59;100.00;101317.33;1344098;106;21241;-89
2022/01/11 11:24:11;;;;;;;51.33;14.87;;;;;;;-0.63;100.00;101323.46;1309781;108;21724;-88
2022/01/11 11:26:50;;;;;;;49.80;13.78;;;;;;;-0.67;100.00;101323.98;1309978;109;21757;-87
2022/01/11 11:29:22;;;;;;;49.80;13.43;;;;;;;-0.69;100.00;101322.31;1309503;108;21791;-88
2022/01/11 11:31:50;;;;;;;47.10;13.85;;;;;;;-0.75;100.00;101324.81;1320045;107;21596;-91
2022/01/11 11:34:16;;;;;;;45.08;12.90;;;;;;;-0.78;100.00;101326.47;1303494;110;21156;-89
2022/01/11 11:36:44;;;;;;;45.85;14.28;;;;;;;-0.80;100.00;101326.62;1303361;110;21192;-88
2022/01/11 11:39:15;;;;;;;40.83;12.80;;;;;;;-0.79;100.00;101332.26;1311573;105;21276;-88